Airfield :
LOGIN :

Register | Disclaimer

   EN    FR    IT 

 










Legend :    VFR   Marginal VFR   IFR   Intensive IFR   Very Intensive IFR
Visi :
Ceiling :
>= 8 km
>= 3000ft
5 to 8 km
1000 to 3000 ft
1500m to 5 km
500 to 1000 ft
800 to 1500m
200 to 500 ft
< 800m
< 200 ft
Symbols :   Thunderstorms  Fog  Heavy snow  Heavy precipitations  Wind > 20 kt
SIGMETs :     Misc.  Thunderstorms  Icing  Turbulence  Mountain Waves  Volcanic Ashes







- Airport Elevation : 138 ft
- IATA code : RLG


ETNL - Rostock Laage

CURRENT METAR :
  • 130020Z 03007KT 9999 SCT027 02/00 Q1027 BLU+

EXPIRED METARs :
  • 122320Z 03008KT 9999 -SHRA BKN019 03/01 Q1028 WHT
  • 122220Z 05005KT 9999 BKN023 03/01 Q1027 WHT

TAF TAF ETNL
Valid from the 13 at 00:00 until the 13 at 12:00 UTC


122300Z 1300/1312 04005KT 8000 NSW SCT012 BKN020
TEMPO 1300/1312 04008KT 4000 -RADZ BKN010 OVC020
PROB30 1300/1310 05003KT 3000 SHRASN BKN005 BKN010TCU BY ETGL
No reported NOTAMs for that airfield.



MET'MAP, your aeronautical weather chart ! - Copyright ORBIFLY December 2007 - Disclaimer

ORBIFLY MET'MAP TEAM :

Programming & Development : Alexandra Zaïnal
Concept & Development : Baudouin d'Aumeries
Co-Development & Prog : Marc-Olivier Méhu
Technical & hardware support : Manuel Goepfert

Contact : metmap@orbifly.com




SOURCES & CREDITS :

   NOAA